This is the latest recevied weather packets stored in our database for station/object ED4YAZ-13. If no packets are shown the sender has not sent any weather packets the latest 10 day(s).
| Time | Temp. | Humidity | Pressure | Rain* | Wind** | Luminosity | Snow |
|---|---|---|---|---|---|---|---|
| 1778166170 | 22.22° C | 41% | 1007.1 hPa | - | - | - | - |
| 1778165570 | 19.44° C | 43% | 1008.2 hPa | - | - | - | - |
| 1778164970 | 19.44° C | 43% | 1008.3 hPa | - | - | - | - |
| 1778164370 | 19.44° C | 45% | 1008.2 hPa | - | - | - | - |
| 1778163765 | 19.44° C | 45% | 1008.3 hPa | - | - | - | - |
| 1778163401 | 18.89° C | 47% | 1008.5 hPa | - | - | - | - |
| 1778163161 | 18.89° C | 47% | 1008.5 hPa | - | - | - | - |
| 1778162548 | 18.89° C | 49% | 1008.4 hPa | - | - | - | - |
| 1778161948 | 17.78° C | 52% | 1008.9 hPa | - | - | - | - |
| 1778160889 | 15.56° C | 56% | 1010.2 hPa | - | - | - | - |
| 1778160855 | 15.56° C | 56% | 1010.2 hPa | - | - | - | - |
| 1778160255 | 13.89° C | 58% | 1010.7 hPa | - | - | - | - |
| 1778159655 | 13.33° C | 59% | 1011.2 hPa | - | - | - | - |
| 1778159055 | 13.89° C | 58% | 1010.6 hPa | - | - | - | - |
| 1778158447 | 13.89° C | 59% | 1010.9 hPa | - | - | - | - |
| 1778157833 | 13.33° C | 61% | 1011.7 hPa | - | - | - | - |
| 1778157221 | 13.33° C | 64% | 1012.2 hPa | - | - | - | - |
| 1778156660 | 11.67° C | 67% | 1012.8 hPa | - | - | - | - |
| 1778156615 | 11.67° C | 67% | 1012.8 hPa | - | - | - | - |
| 1778156015 | 11.11° C | 71% | 1013.2 hPa | - | - | - | - |
| 1778155415 | 10.56° C | 71% | 1013.3 hPa | - | - | - | - |
| 1778154815 | 10.56° C | 72% | 1013.3 hPa | - | - | - | - |
| 1778154215 | 10.56° C | 74% | 1013.3 hPa | - | - | - | - |
| 1778153614 | 11.11° C | 71% | 1013.3 hPa | - | - | - | - |
| 1778153014 | 12.22° C | 69% | 1012.9 hPa | - | - | - | - |
* Rain since midnight (hover to see other rain measurements)
** Current wind speed in m/s (hover to see current wind gust speed)